createdAt,value
2018-04-28T00:01:49.212Z,54.40
2018-04-28T00:04:19.934Z,54.50
2018-04-28T00:06:53.949Z,54.50
2018-04-28T00:09:25.724Z,54.40
2018-04-28T00:11:56.301Z,54.30
2018-04-28T00:14:27.358Z,54.20
2018-04-28T00:16:58.112Z,54.80
2018-04-28T00:19:27.874Z,54.20
2018-04-28T00:21:59.101Z,53.80
2018-04-28T00:24:29.741Z,53.80
2018-04-28T00:27:06.037Z,53.70
2018-04-28T00:29:36.188Z,53.70
2018-04-28T00:32:06.023Z,54.30
2018-04-28T00:34:36.757Z,55.00
2018-04-28T00:37:14.885Z,54.40
2018-04-28T00:39:45.352Z,54.20
2018-04-28T00:42:16.246Z,54.10
2018-04-28T00:44:51.575Z,54.90
2018-04-28T00:47:21.512Z,54.80
2018-04-28T00:49:52.109Z,54.80
2018-04-28T00:52:22.737Z,54.90
2018-04-28T00:54:52.919Z,54.80
2018-04-28T00:57:26.129Z,54.90
2018-04-28T01:00:02.168Z,54.90
2018-04-28T01:02:35.328Z,55.00
2018-04-28T01:05:28.493Z,55.20
2018-04-28T01:08:01.467Z,55.30
2018-04-28T01:10:32.992Z,55.30
2018-04-28T01:13:03.535Z,55.80
2018-04-28T01:15:34.950Z,55.10
2018-04-28T01:18:18.737Z,55.20
2018-04-28T01:20:51.200Z,55.30
2018-04-28T01:23:22.819Z,55.20
2018-04-28T01:25:55.040Z,55.40
2018-04-28T01:28:37.734Z,56.10
2018-04-28T01:31:12.889Z,56.40
2018-04-28T01:33:55.185Z,56.30
2018-04-28T01:36:28.413Z,56.60
2018-04-28T01:38:59.779Z,58.20
2018-04-28T01:41:30.325Z,58.20
2018-04-28T01:44:04.404Z,59.20
2018-04-28T01:46:38.417Z,59.90
2018-04-28T01:49:12.751Z,61.20
2018-04-28T01:51:44.593Z,61.10
2018-04-28T01:54:17.951Z,61.40
2018-04-28T01:56:48.489Z,61.50
2018-04-28T01:59:22.850Z,62.30
2018-04-28T02:01:53.426Z,62.90
2018-04-28T02:04:23.334Z,63.50
2018-04-28T02:06:53.003Z,63.60
2018-04-28T02:09:27.300Z,63.10
2018-04-28T02:11:57.721Z,63.00
2018-04-28T02:14:28.216Z,63.00
2018-04-28T02:16:57.886Z,63.00
2018-04-28T02:19:28.451Z,62.70
2018-04-28T02:21:59.117Z,62.60
2018-04-28T02:24:29.546Z,62.10
2018-04-28T02:26:59.164Z,62.10
2018-04-28T02:29:30.298Z,62.80
2018-04-28T02:32:01.240Z,63.20
2018-04-28T02:34:31.620Z,63.70
2018-04-28T02:37:08.752Z,63.80
2018-04-28T02:39:39.199Z,63.00
2018-04-28T02:42:09.367Z,63.00
2018-04-28T02:44:39.098Z,62.90
2018-04-28T02:47:10.007Z,62.50
2018-04-28T02:49:40.142Z,62.50
2018-04-28T02:52:10.850Z,62.30
2018-04-28T02:54:41.091Z,62.10
2018-04-28T02:57:11.090Z,61.60
2018-04-28T02:59:41.463Z,61.20
2018-04-28T03:02:11.156Z,61.00
2018-04-28T03:04:42.420Z,61.50
2018-04-28T03:07:13.069Z,60.90
2018-04-28T03:09:45.068Z,60.90
2018-04-28T03:12:15.950Z,60.80
2018-04-28T03:14:46.405Z,60.50
2018-04-28T03:17:16.558Z,60.50
2018-04-28T03:19:46.731Z,60.40
2018-04-28T03:22:16.471Z,60.70
2018-04-28T03:24:47.261Z,60.90
2018-04-28T03:27:17.237Z,60.30
2018-04-28T03:29:51.163Z,60.20
2018-04-28T03:32:25.870Z,60.70
2018-04-28T03:34:55.533Z,60.80
2018-04-28T03:37:26.053Z,60.90
2018-04-28T03:39:56.809Z,60.60
2018-04-28T03:42:26.757Z,60.60
2018-04-28T03:44:57.330Z,61.00
2018-04-28T03:47:31.733Z,61.30
2018-04-28T03:50:01.474Z,61.70
2018-04-28T03:52:37.823Z,61.60
2018-04-28T03:55:09.905Z,62.10
2018-04-28T03:57:49.275Z,61.90
2018-04-28T04:02:24.428Z,62.20
2018-04-28T04:04:56.191Z,62.40
2018-04-28T04:07:26.441Z,62.40
2018-04-28T04:09:57.391Z,63.20
2018-04-28T04:12:28.510Z,63.20
2018-04-28T04:14:58.230Z,63.30
2018-04-28T04:17:29.381Z,63.30
2018-04-28T04:20:01.702Z,63.00
2018-04-28T04:22:31.820Z,63.10
2018-04-28T04:25:01.733Z,62.90
2018-04-28T04:27:31.365Z,62.90
2018-04-28T04:30:02.166Z,63.40
2018-04-28T04:32:32.261Z,64.10
2018-04-28T04:35:01.938Z,63.50
2018-04-28T04:37:31.663Z,63.00
2018-04-28T04:40:03.867Z,63.00
2018-04-28T04:42:33.949Z,63.00
2018-04-28T04:45:04.452Z,62.10
2018-04-28T04:47:35.517Z,62.00
2018-04-28T04:50:09.281Z,61.10
2018-04-28T04:52:40.094Z,61.10
2018-04-28T04:55:13.973Z,61.80
2018-04-28T04:57:43.889Z,61.30
2018-04-28T05:00:17.468Z,61.10
2018-04-28T05:02:48.250Z,61.00
2018-04-28T05:05:18.423Z,60.60
2018-04-28T05:07:53.150Z,60.70
2018-04-28T05:10:23.243Z,60.80
2018-04-28T05:12:54.019Z,60.50
2018-04-28T05:15:27.598Z,60.00
2018-04-28T05:17:58.760Z,60.00
2018-04-28T05:20:28.811Z,60.30
2018-04-28T05:22:58.721Z,60.50
2018-04-28T05:28:08.133Z,59.50
2018-04-28T05:30:40.163Z,59.70
2018-04-28T05:33:13.839Z,59.40
2018-04-28T05:35:48.237Z,59.80
2018-04-28T05:38:21.170Z,59.60
2018-04-28T05:40:52.611Z,59.10
2018-04-28T05:43:25.003Z,59.20
2018-04-28T05:45:58.146Z,59.20
2018-04-28T05:48:27.931Z,59.00
2018-04-28T05:51:00.549Z,59.00
2018-04-28T05:53:39.231Z,58.90
2018-04-28T05:56:22.132Z,59.60
2018-04-28T05:58:52.467Z,59.60
2018-04-28T06:01:30.978Z,58.60
2018-04-28T06:04:04.673Z,58.60
2018-04-28T06:06:38.331Z,58.00
2018-04-28T06:09:10.551Z,58.10
2018-04-28T06:12:02.189Z,57.70
2018-04-28T06:14:33.234Z,57.60
2018-04-28T06:17:12.582Z,57.90
2018-04-28T06:19:44.041Z,58.00
2018-04-28T06:22:21.436Z,58.00
2018-04-28T06:24:51.196Z,57.80
2018-04-28T06:27:31.378Z,58.10
2018-04-28T06:30:01.780Z,57.80
2018-04-28T06:32:31.739Z,57.80
2018-04-28T06:35:03.515Z,57.00
2018-04-28T06:37:44.872Z,57.00
2018-04-28T06:40:15.209Z,57.60
2018-04-28T06:42:49.558Z,57.90
2018-04-28T06:45:31.924Z,57.70
2018-04-28T06:51:05.670Z,57.90
2018-04-28T06:53:44.945Z,57.70
2018-04-28T06:59:55.525Z,57.40
2018-04-28T07:02:59.142Z,57.40
2018-04-28T07:05:31.465Z,57.20
2018-04-28T07:08:04.598Z,57.20
2018-04-28T07:24:11.963Z,57.60
2018-04-28T07:26:45.059Z,57.50
2018-04-28T07:29:19.091Z,57.20
2018-04-28T07:32:05.536Z,56.50
2018-04-28T07:34:38.946Z,56.30
2018-04-28T07:37:49.582Z,56.30
2018-04-28T07:43:51.364Z,55.50
2018-04-28T08:11:52.687Z,55.20
2018-04-28T08:14:42.559Z,55.30
2018-04-28T08:17:23.624Z,53.90
2018-04-28T08:19:57.848Z,53.10
2018-04-28T08:22:30.055Z,51.10
2018-04-28T08:27:56.720Z,52.30
2018-04-28T08:30:33.580Z,51.20
2018-04-28T08:33:04.345Z,50.20
2018-04-28T08:35:42.034Z,48.50
2018-04-28T08:41:38.492Z,49.70
2018-04-28T08:44:13.936Z,49.70
2018-04-28T08:46:49.502Z,49.50
2018-04-28T08:49:24.908Z,49.30
2018-04-28T08:52:04.337Z,49.30
2018-04-28T08:54:49.632Z,49.80
2018-04-28T08:57:22.038Z,49.80
2018-04-28T09:00:10.245Z,49.30
2018-04-28T09:02:40.641Z,49.20
2018-04-28T09:05:29.303Z,48.20
2018-04-28T09:08:03.660Z,48.20
2018-04-28T09:10:57.318Z,47.70
2018-04-28T09:13:29.242Z,48.00
2018-04-28T09:16:01.309Z,48.00
2018-04-28T09:18:34.071Z,46.80
2018-04-28T09:21:13.014Z,44.90
2018-04-28T09:23:44.055Z,45.90
2018-04-28T09:26:25.335Z,44.20
2018-04-28T09:29:42.302Z,44.90
2018-04-28T09:32:19.178Z,45.20
2018-04-28T09:34:52.050Z,45.20
2018-04-28T09:37:25.284Z,45.40
2018-04-28T09:40:04.132Z,45.50
2018-04-28T09:46:31.164Z,44.30
2018-04-28T09:49:12.991Z,44.60
2018-04-28T09:51:51.407Z,44.00
2018-04-28T09:54:24.261Z,44.30
2018-04-28T09:56:53.777Z,44.30
2018-04-28T10:05:17.856Z,43.60
2018-04-28T10:07:47.953Z,43.90
2018-04-28T10:10:21.798Z,45.20
2018-04-28T10:12:51.626Z,44.80
2018-04-28T10:15:22.862Z,44.20
2018-04-28T10:20:31.875Z,45.20
2018-04-28T10:23:01.888Z,43.60
2018-04-28T10:25:31.592Z,44.00
2018-04-28T10:28:01.575Z,44.80
2018-04-28T10:30:31.128Z,41.90
2018-04-28T10:33:01.417Z,43.40
2018-04-28T10:35:32.493Z,43.40
2018-04-28T10:38:02.705Z,43.30
2018-04-28T10:40:32.946Z,42.80
2018-04-28T10:43:03.809Z,40.30
2018-04-28T10:45:33.608Z,40.20
2018-04-28T10:50:37.596Z,41.40
2018-04-28T10:53:07.165Z,42.00
2018-04-28T10:55:36.876Z,40.40
2018-04-28T10:58:11.847Z,41.40
2018-04-28T11:00:49.915Z,40.80
2018-04-28T11:03:51.958Z,39.80
2018-04-28T11:06:39.158Z,39.10
2018-04-28T11:09:14.486Z,39.20
2018-04-28T11:12:17.694Z,39.60
2018-04-28T11:14:50.954Z,39.50
2018-04-28T11:17:21.731Z,39.70
2018-04-28T11:20:23.773Z,39.30
2018-04-28T11:23:21.961Z,39.30
2018-04-28T11:26:03.745Z,38.60
2018-04-28T11:28:34.938Z,40.20
2018-04-28T11:31:06.329Z,39.70
2018-04-28T11:33:45.773Z,39.00
2018-04-28T11:36:19.088Z,38.70
2018-04-28T11:38:49.971Z,39.00
2018-04-28T11:41:20.173Z,38.30
2018-04-28T11:44:32.962Z,38.40
2018-04-28T11:47:14.591Z,40.80
2018-04-28T11:49:49.661Z,40.40
2018-04-28T11:52:24.197Z,38.50
2018-04-28T11:54:57.385Z,40.00
2018-04-28T11:57:46.272Z,39.40
2018-04-28T12:00:26.404Z,39.30
2018-04-28T12:02:57.975Z,39.30
2018-04-28T12:08:11.762Z,41.10
2018-04-28T12:10:52.786Z,39.40
2018-04-28T12:13:39.412Z,39.40
2018-04-28T12:16:27.741Z,40.10
2018-04-28T12:19:07.017Z,40.10
2018-04-28T12:21:42.638Z,40.40
2018-04-28T12:24:26.552Z,40.30
2018-04-28T12:27:10.089Z,40.30
2018-04-28T12:30:12.065Z,38.40
2018-04-28T12:33:11.222Z,37.50
2018-04-28T12:35:58.165Z,37.40
2018-04-28T12:38:53.300Z,38.30
2018-04-28T12:44:13.290Z,38.50
2018-04-28T12:46:51.759Z,38.70
2018-04-28T12:49:27.214Z,42.40
2018-04-28T12:52:28.250Z,39.30
2018-04-28T12:54:58.186Z,36.60
2018-04-28T12:57:28.764Z,37.20
2018-04-28T13:00:12.847Z,37.00
2018-04-28T13:05:57.007Z,37.60
2018-04-28T13:11:37.645Z,37.50
2018-04-28T13:18:05.264Z,38.60
2018-04-28T13:20:51.040Z,39.00
2018-04-28T13:23:45.068Z,36.80
2018-04-28T13:26:18.852Z,36.00
2018-04-28T13:28:50.725Z,34.80
2018-04-28T13:31:31.915Z,35.90
2018-04-28T13:37:17.068Z,37.20
2018-04-28T13:40:07.903Z,37.00
2018-04-28T13:42:55.805Z,35.40
2018-04-28T13:48:29.548Z,36.60
2018-04-28T13:51:11.564Z,36.60
2018-04-28T13:54:03.912Z,35.20
2018-04-28T14:00:34.005Z,36.40
2018-04-28T14:07:21.322Z,36.40
2018-04-28T14:10:46.294Z,37.30
2018-04-28T14:17:42.295Z,38.00
2018-04-28T14:21:15.525Z,36.00
2018-04-28T14:24:51.276Z,36.50
2018-04-28T14:28:09.637Z,35.90
2018-04-28T14:31:33.803Z,34.70
2018-04-28T14:49:23.407Z,34.80
2018-04-28T14:52:40.776Z,34.70
2018-04-28T14:55:49.049Z,31.00
2018-04-28T14:59:33.279Z,33.50
2018-04-28T15:02:43.986Z,35.40
2018-04-28T15:06:11.340Z,37.20
2018-04-28T15:24:06.442Z,36.50
2018-04-28T15:27:26.236Z,37.00
2018-04-28T15:30:33.152Z,36.70
2018-04-28T15:33:37.056Z,36.80
2018-04-28T15:36:49.058Z,36.50
2018-04-28T15:43:30.031Z,38.20
2018-04-28T15:50:05.542Z,37.50
2018-04-28T15:56:37.708Z,38.20
2018-04-28T16:03:25.926Z,38.80
2018-04-28T16:09:38.901Z,41.00
2018-04-28T16:12:43.380Z,40.60
2018-04-28T16:15:44.260Z,40.60
2018-04-28T16:18:44.450Z,38.50
2018-04-28T16:21:44.422Z,38.50
2018-04-28T16:24:50.598Z,40.70
2018-04-28T16:27:51.538Z,40.70
2018-04-28T16:30:51.635Z,38.30
2018-04-28T16:33:52.365Z,40.10
2018-04-28T16:36:55.255Z,40.10
2018-04-28T16:39:56.209Z,42.00
2018-04-28T16:42:56.018Z,41.70
2018-04-28T16:45:57.773Z,43.40
2018-04-28T16:48:57.603Z,40.70
2018-04-28T16:51:58.403Z,41.30
2018-04-28T16:54:59.415Z,41.30
2018-04-28T17:08:00.471Z,41.00
2018-04-28T17:15:07.602Z,40.60
2018-04-28T17:18:15.808Z,40.60
2018-04-28T17:21:21.155Z,41.70
2018-04-28T17:28:11.347Z,41.90
2018-04-28T17:34:35.250Z,43.00
2018-04-28T17:38:05.133Z,43.00
